Saint Peter, MN

8:06 AM CDT on August 29, 2015 (GMT -0500)
Nicollet Meadows | | Change Station
CLOSE
Current Station
Personal Weather Station
Location: Saint Peter, MN
Elevation: 915 ft
Nearby Weather Stations

Elev 915 ft 44.31 °N, 93.98 °W | Updated 37 seconds ago

Fog
Fog
57.2 °F
Feels Like 57.2 °F
N
0.0
Wind Variable Wind from SE
Gusts 0.0 mph

Today
High -- | Low -- °F
--% Chance of Precip.
Yesterday
High -- | Low -- °F
Precip. -- in
6:34 AM 7:57 PM
Full, 100% visible
Pressure 30.07 in
Visibility 0.2 miles
Clouds Overcast 200 ft
Dew Point 57 °F
Humidity 99%
Rainfall 0.00 in
Snow Depth Not available.
UV 0 out of 12
Pollen 8.30 out of 12
Air Quality Not available.
Flu Activity Not available.
METAR KMKT 291255Z 00000KT M1/4SM OVC002 14/12 A3007 RMK AO1
Pressure 30.07 in
Visibility 0.2 miles
Clouds Overcast 200 ft
Dew Point 57 °F
Humidity 99%
Rainfall 0.00 in
Snow Depth Not available.
UV 0 out of 12
Pollen 8.30 out of 12
Air Quality Not available.
Flu Activity Not available.
METAR KMKT 291255Z 00000KT M1/4SM OVC002 14/12 A3007 RMK AO1

10-Day Weather Forecast

×

Almanac

Astronomy

Aug. 29, 2015 Rise Set
Actual Time
Civil Twilight
Nautical Twilight
Astronomical Twilight
Moon
Length of Visible Light
Length of Day
Tomorrow will be .
, % of the Moon is Illuminated

Today's Extremes

State Highs State Lows

Community

WunderPhotos

Upload Photos

1,850,681 photos uploaded!

WunderBlogs® & News

Nearby

Air Quality

  Air Quality AQ Index Pollutant
Not available.

Snow Depth

Station Depth Elevation

Earthquake Activity

City Distance Mag. Time & Date
Minimum magnitude displayed is 2.5.

Coastal Water Temperatures

Place Temperature

Stations

Nearby Weather Stations

Station Location Temp. Windchill Dew Point Humidity Wind Precip. Elev Updated Type